OISF

Details ICAO OISF
Name FASA
Region Iran
Timezone Asia/Tehran (UTC+4.5)
Plans Departing 0
Arriving 1
Stats Elevation 4,261 ft / 1,299 m (AMSL)
Location 28.892361° 53.723334°
Runways 1
Magnetic Variation 2.936° E
Sunrise 2018-05-22 01:31:49 UTC / 2018-05-22 06:01:49 Local
Sunset 2018-05-22 15:14:34 UTC / 2018-05-22 19:44:34 Local
Advertisement - Login to hide

Runways

ID Width Length Bearing (true) Bearing (mag) Surface Threshold Offset Overrun Length
14 100 ft / 30 m 6,511 ft / 1,984 m 137.03° 134.09° Asphalt 0 ft / 0 m 250 ft / 76 m
32 100 ft / 30 m 6,511 ft / 1,984 m 317.04° 314.10° Asphalt 0 ft / 0 m 200 ft / 61 m

Map

Weather


0- 5 10 15 20 25 30 35+ Temperature / ° C

Clouds and Precipitation
Forecast for 2018-05-22 06:00 UTC. Updated 2 hours ago

Ground ~20,000 ft ~40,000 ft Winds

METAR

OISF 220650Z 11004KT 9999 FEW040 30/00 Q1017

TAF

Not found

Frequencies

Tower 118.95 MHz INFO
Warning: Do not use this data for real-world aviation or navigation. No guarantee of current accuracy is given.